sensor_id;sensor_type;location;lat;lon;timestamp;pressure;altitude;pressure_sealevel;temperature
68012;BMP180;54794;48.348;7.878;2023-05-14T07:03:56;99002.00;;;14.40
68012;BMP180;54794;48.348;7.878;2023-05-14T07:09:27;98999.00;;;14.50
68012;BMP180;54794;48.348;7.878;2023-05-14T07:12:30;98991.00;;;14.80
68012;BMP180;54794;48.348;7.878;2023-05-14T07:15:28;98993.00;;;15.40
68012;BMP180;54794;48.348;7.878;2023-05-14T07:18:18;98986.00;;;15.00
68012;BMP180;54794;48.348;7.878;2023-05-14T07:21:12;98986.00;;;15.40
68012;BMP180;54794;48.348;7.878;2023-05-14T07:24:10;99000.00;;;15.60
68012;BMP180;54794;48.348;7.878;2023-05-14T07:27:09;98994.00;;;15.70
68012;BMP180;54794;48.348;7.878;2023-05-14T07:29:55;98988.00;;;16.20
68012;BMP180;54794;48.348;7.878;2023-05-14T07:33:47;98995.00;;;16.00
68012;BMP180;54794;48.348;7.878;2023-05-14T07:36:57;99002.00;;;16.00
68012;BMP180;54794;48.348;7.878;2023-05-14T07:39:41;98976.00;;;16.30
68012;BMP180;54794;48.348;7.878;2023-05-14T07:42:46;98988.00;;;15.60
68012;BMP180;54794;48.348;7.878;2023-05-14T07:45:51;98981.00;;;16.20
68012;BMP180;54794;48.348;7.878;2023-05-14T07:49:04;98974.00;;;16.50
68012;BMP180;54794;48.348;7.878;2023-05-14T07:52:01;98982.00;;;16.80
68012;BMP180;54794;48.348;7.878;2023-05-14T07:55:38;98970.00;;;17.20
68012;BMP180;54794;48.348;7.878;2023-05-14T07:58:38;98968.00;;;17.40
68012;BMP180;54794;48.348;7.878;2023-05-14T08:01:36;98978.00;;;16.80
68012;BMP180;54794;48.348;7.878;2023-05-14T08:05:11;98968.00;;;17.00
68012;BMP180;54794;48.348;7.878;2023-05-14T08:08:27;98982.00;;;16.70
68012;BMP180;54794;48.348;7.878;2023-05-14T08:11:46;98975.00;;;17.20
68012;BMP180;54794;48.348;7.878;2023-05-14T08:14:20;98964.00;;;16.80
68012;BMP180;54794;48.348;7.878;2023-05-14T08:17:11;98965.00;;;16.70
68012;BMP180;54794;48.348;7.878;2023-05-14T08:19:54;98964.00;;;16.90
68012;BMP180;54794;48.348;7.878;2023-05-14T08:22:30;98959.00;;;16.90
68012;BMP180;54794;48.348;7.878;2023-05-14T08:25:12;98956.00;;;17.10
68012;BMP180;54794;48.348;7.878;2023-05-14T08:28:03;98955.00;;;16.90
68012;BMP180;54794;48.348;7.878;2023-05-14T08:30:40;98949.00;;;17.00
68012;BMP180;54794;48.348;7.878;2023-05-14T08:33:25;98948.00;;;17.20
68012;BMP180;54794;48.348;7.878;2023-05-14T08:36:08;98949.00;;;17.50
68012;BMP180;54794;48.348;7.878;2023-05-14T08:39:02;98947.00;;;17.40
68012;BMP180;54794;48.348;7.878;2023-05-14T08:45:28;98950.00;;;17.80
68012;BMP180;54794;48.348;7.878;2023-05-14T08:48:28;98953.00;;;18.20
68012;BMP180;54794;48.348;7.878;2023-05-14T08:52:05;98950.00;;;18.10
68012;BMP180;54794;48.348;7.878;2023-05-14T08:55:44;98942.00;;;17.90
68012;BMP180;54794;48.348;7.878;2023-05-14T08:59:11;98939.00;;;18.20
68012;BMP180;54794;48.348;7.878;2023-05-14T09:05:46;98934.00;;;18.30
68012;BMP180;54794;48.348;7.878;2023-05-14T09:09:45;98927.00;;;18.20
68012;BMP180;54794;48.348;7.878;2023-05-14T09:12:45;98929.00;;;18.00
68012;BMP180;54794;48.348;7.878;2023-05-14T09:15:56;98925.00;;;17.90
68012;BMP180;54794;48.348;7.878;2023-05-14T09:19:40;98922.00;;;17.70
68012;BMP180;54794;48.348;7.878;2023-05-14T09:22:47;98911.00;;;18.80
68012;BMP180;54794;48.348;7.878;2023-05-14T09:29:24;98908.00;;;18.60
68012;BMP180;54794;48.348;7.878;2023-05-14T09:32:11;98906.00;;;19.10
68012;BMP180;54794;48.348;7.878;2023-05-14T09:35:26;98903.00;;;19.70
68012;BMP180;54794;48.348;7.878;2023-05-14T09:38:27;98890.00;;;19.30
68012;BMP180;54794;48.348;7.878;2023-05-14T09:41:50;98904.00;;;18.40
68012;BMP180;54794;48.348;7.878;2023-05-14T09:44:53;98906.00;;;18.50
68012;BMP180;54794;48.348;7.878;2023-05-14T09:47:43;98904.00;;;18.20
68012;BMP180;54794;48.348;7.878;2023-05-14T09:54:52;98886.00;;;18.70
68012;BMP180;54794;48.348;7.878;2023-05-14T09:57:37;98881.00;;;19.30
68012;BMP180;54794;48.348;7.878;2023-05-14T10:00:19;98889.00;;;19.00
68012;BMP180;54794;48.348;7.878;2023-05-14T10:03:38;98896.00;;;19.00
68012;BMP180;54794;48.348;7.878;2023-05-14T10:06:42;98888.00;;;19.20
68012;BMP180;54794;48.348;7.878;2023-05-14T10:10:15;98892.00;;;19.40
68012;BMP180;54794;48.348;7.878;2023-05-14T10:13:38;98891.00;;;19.00
68012;BMP180;54794;48.348;7.878;2023-05-14T10:17:06;98896.00;;;19.10
68012;BMP180;54794;48.348;7.878;2023-05-14T10:20:18;98888.00;;;19.80
68012;BMP180;54794;48.348;7.878;2023-05-14T10:23:04;98886.00;;;20.20
68012;BMP180;54794;48.348;7.878;2023-05-14T10:26:17;98880.00;;;20.40
68012;BMP180;54794;48.348;7.878;2023-05-14T10:33:25;98871.00;;;20.00
68012;BMP180;54794;48.348;7.878;2023-05-14T10:36:48;98869.00;;;19.50
68012;BMP180;54794;48.348;7.878;2023-05-14T10:40:00;98864.00;;;20.20
68012;BMP180;54794;48.348;7.878;2023-05-14T10:43:03;98862.00;;;19.90
68012;BMP180;54794;48.348;7.878;2023-05-14T10:45:35;98853.00;;;19.50
68012;BMP180;54794;48.348;7.878;2023-05-14T10:48:52;98864.00;;;19.70
68012;BMP180;54794;48.348;7.878;2023-05-14T10:51:53;98856.00;;;19.60
68012;BMP180;54794;48.348;7.878;2023-05-14T11:09:16;98837.00;;;20.20
68012;BMP180;54794;48.348;7.878;2023-05-14T11:15:57;98833.00;;;20.20
68012;BMP180;54794;48.348;7.878;2023-05-14T11:19:47;98829.00;;;20.00
68012;BMP180;54794;48.348;7.878;2023-05-14T11:23:00;98824.00;;;19.80
68012;BMP180;54794;48.348;7.878;2023-05-14T11:25:59;98829.00;;;19.90
68012;BMP180;54794;48.348;7.878;2023-05-14T11:29:01;98830.00;;;20.10
68012;BMP180;54794;48.348;7.878;2023-05-14T11:32:05;98819.00;;;20.20
68012;BMP180;54794;48.348;7.878;2023-05-14T11:35:00;98834.00;;;20.20
68012;BMP180;54794;48.348;7.878;2023-05-14T11:41:03;98816.00;;;19.90
68012;BMP180;54794;48.348;7.878;2023-05-14T11:44:26;98815.00;;;20.10
68012;BMP180;54794;48.348;7.878;2023-05-14T11:47:48;98813.00;;;21.10
68012;BMP180;54794;48.348;7.878;2023-05-14T11:50:29;98804.00;;;21.70
68012;BMP180;54794;48.348;7.878;2023-05-14T11:54:14;98799.00;;;20.90
68012;BMP180;54794;48.348;7.878;2023-05-14T11:57:42;98812.00;;;20.40
68012;BMP180;54794;48.348;7.878;2023-05-14T12:01:00;98797.00;;;19.90
68012;BMP180;54794;48.348;7.878;2023-05-14T12:07:46;98786.00;;;20.00
68012;BMP180;54794;48.348;7.878;2023-05-14T12:10:41;98791.00;;;19.80
68012;BMP180;54794;48.348;7.878;2023-05-14T12:13:49;98792.00;;;19.80
68012;BMP180;54794;48.348;7.878;2023-05-14T12:16:57;98782.00;;;20.20
68012;BMP180;54794;48.348;7.878;2023-05-14T12:20:32;98785.00;;;21.70
68012;BMP180;54794;48.348;7.878;2023-05-14T12:23:23;98773.00;;;22.30
68012;BMP180;54794;48.348;7.878;2023-05-14T12:26:59;98771.00;;;22.40
68012;BMP180;54794;48.348;7.878;2023-05-14T12:30:37;98759.00;;;21.50
68012;BMP180;54794;48.348;7.878;2023-05-14T12:37:28;98751.00;;;22.10
68012;BMP180;54794;48.348;7.878;2023-05-14T12:40:51;98751.00;;;23.20
68012;BMP180;54794;48.348;7.878;2023-05-14T12:43:48;98735.00;;;22.50
68012;BMP180;54794;48.348;7.878;2023-05-14T12:47:12;98738.00;;;22.90
68012;BMP180;54794;48.348;7.878;2023-05-14T12:50:21;98742.00;;;23.00
68012;BMP180;54794;48.348;7.878;2023-05-14T12:53:42;98733.00;;;22.70
68012;BMP180;54794;48.348;7.878;2023-05-14T12:59:33;98733.00;;;21.90
68012;BMP180;54794;48.348;7.878;2023-05-14T13:02:33;98728.00;;;21.50
68012;BMP180;54794;48.348;7.878;2023-05-14T13:05:26;98739.00;;;21.50
68012;BMP180;54794;48.348;7.878;2023-05-14T13:08:22;98720.00;;;21.60
68012;BMP180;54794;48.348;7.878;2023-05-14T13:12:07;98726.00;;;22.60
68012;BMP180;54794;48.348;7.878;2023-05-14T13:14:46;98713.00;;;23.30
68012;BMP180;54794;48.348;7.878;2023-05-14T13:18:22;98733.00;;;22.80
68012;BMP180;54794;48.348;7.878;2023-05-14T13:21:33;98716.00;;;23.50
68012;BMP180;54794;48.348;7.878;2023-05-14T13:25:13;98729.00;;;23.70
68012;BMP180;54794;48.348;7.878;2023-05-14T13:28:24;98718.00;;;24.00
68012;BMP180;54794;48.348;7.878;2023-05-14T13:31:56;98714.00;;;24.00
68012;BMP180;54794;48.348;7.878;2023-05-14T13:35:05;98719.00;;;24.10
68012;BMP180;54794;48.348;7.878;2023-05-14T13:37:52;98706.00;;;24.90
68012;BMP180;54794;48.348;7.878;2023-05-14T13:40:46;98713.00;;;24.60
68012;BMP180;54794;48.348;7.878;2023-05-14T13:47:54;98700.00;;;24.70
68012;BMP180;54794;48.348;7.878;2023-05-14T13:50:41;98692.00;;;23.30
68012;BMP180;54794;48.348;7.878;2023-05-14T13:54:19;98691.00;;;23.80
68012;BMP180;54794;48.348;7.878;2023-05-14T13:56:57;98687.00;;;24.90
68012;BMP180;54794;48.348;7.878;2023-05-14T14:00:38;98696.00;;;24.40
68012;BMP180;54794;48.348;7.878;2023-05-14T14:03:02;98690.00;;;23.50
68012;BMP180;54794;48.348;7.878;2023-05-14T14:09:26;98699.00;;;22.20
68012;BMP180;54794;48.348;7.878;2023-05-14T14:12:27;98692.00;;;23.80
68012;BMP180;54794;48.348;7.878;2023-05-14T14:15:28;98685.00;;;24.70
68012;BMP180;54794;48.348;7.878;2023-05-14T14:18:24;98672.00;;;23.80
68012;BMP180;54794;48.348;7.878;2023-05-14T14:21:20;98675.00;;;23.70
68012;BMP180;54794;48.348;7.878;2023-05-14T14:24:35;98683.00;;;22.80
68012;BMP180;54794;48.348;7.878;2023-05-14T14:28:12;98689.00;;;22.10
68012;BMP180;54794;48.348;7.878;2023-05-14T14:32:00;98686.00;;;22.00
68012;BMP180;54794;48.348;7.878;2023-05-14T14:35:22;98686.00;;;22.00
68012;BMP180;54794;48.348;7.878;2023-05-14T14:38:37;98684.00;;;21.30
68012;BMP180;54794;48.348;7.878;2023-05-14T14:41:38;98691.00;;;21.70
68012;BMP180;54794;48.348;7.878;2023-05-14T14:55:58;98683.00;;;21.30
68012;BMP180;54794;48.348;7.878;2023-05-14T14:59:45;98674.00;;;21.50
68012;BMP180;54794;48.348;7.878;2023-05-14T15:03:02;98672.00;;;21.50
68012;BMP180;54794;48.348;7.878;2023-05-14T15:06:04;98678.00;;;21.50
68012;BMP180;54794;48.348;7.878;2023-05-14T15:09:12;98686.00;;;21.10
68012;BMP180;54794;48.348;7.878;2023-05-14T15:12:14;98679.00;;;21.10
68012;BMP180;54794;48.348;7.878;2023-05-14T15:15:32;98678.00;;;21.10
68012;BMP180;54794;48.348;7.878;2023-05-14T15:18:56;98686.00;;;21.10
68012;BMP180;54794;48.348;7.878;2023-05-14T15:21:38;98677.00;;;21.10
68012;BMP180;54794;48.348;7.878;2023-05-14T15:24:42;98678.00;;;21.90
68012;BMP180;54794;48.348;7.878;2023-05-14T15:28:20;98680.00;;;22.10
68012;BMP180;54794;48.348;7.878;2023-05-14T15:30:58;98685.00;;;22.10
68012;BMP180;54794;48.348;7.878;2023-05-14T15:33:46;98682.00;;;22.10
68012;BMP180;54794;48.348;7.878;2023-05-14T15:37:08;98690.00;;;22.80
68012;BMP180;54794;48.348;7.878;2023-05-14T15:40:18;98688.00;;;23.30
68012;BMP180;54794;48.348;7.878;2023-05-14T15:44:13;98695.00;;;21.90
68012;BMP180;54794;48.348;7.878;2023-05-14T15:47:34;98695.00;;;21.00
68012;BMP180;54794;48.348;7.878;2023-05-14T15:50:24;98700.00;;;21.00
68012;BMP180;54794;48.348;7.878;2023-05-14T15:53:39;98692.00;;;22.20
68012;BMP180;54794;48.348;7.878;2023-05-14T15:56:32;98692.00;;;21.90
68012;BMP180;54794;48.348;7.878;2023-05-14T15:59:30;98674.00;;;21.80
68012;BMP180;54794;48.348;7.878;2023-05-14T16:02:42;98677.00;;;22.20
68012;BMP180;54794;48.348;7.878;2023-05-14T16:06:11;98688.00;;;22.90
68012;BMP180;54794;48.348;7.878;2023-05-14T16:09:17;98682.00;;;22.60
68012;BMP180;54794;48.348;7.878;2023-05-14T16:19:29;98668.00;;;22.20
68012;BMP180;54794;48.348;7.878;2023-05-14T16:22:28;98683.00;;;22.80
68012;BMP180;54794;48.348;7.878;2023-05-14T16:25:54;98674.00;;;23.20
68012;BMP180;54794;48.348;7.878;2023-05-14T16:28:48;98673.00;;;23.10
68012;BMP180;54794;48.348;7.878;2023-05-14T16:31:29;98672.00;;;23.40
68012;BMP180;54794;48.348;7.878;2023-05-14T16:34:41;98670.00;;;23.00
68012;BMP180;54794;48.348;7.878;2023-05-14T16:38:06;98681.00;;;22.80
68012;BMP180;54794;48.348;7.878;2023-05-14T16:41:23;98668.00;;;22.40
68012;BMP180;54794;48.348;7.878;2023-05-14T16:44:24;98669.00;;;22.40
68012;BMP180;54794;48.348;7.878;2023-05-14T16:47:35;98674.00;;;22.00
68012;BMP180;54794;48.348;7.878;2023-05-14T16:50:19;98659.00;;;21.60
68012;BMP180;54794;48.348;7.878;2023-05-14T16:59:38;98670.00;;;21.20
68012;BMP180;54794;48.348;7.878;2023-05-14T17:02:28;98673.00;;;21.20
68012;BMP180;54794;48.348;7.878;2023-05-14T17:05:12;98661.00;;;20.90
68012;BMP180;54794;48.348;7.878;2023-05-14T17:07:48;98664.00;;;20.90
68012;BMP180;54794;48.348;7.878;2023-05-14T17:10:38;98669.00;;;21.00
68012;BMP180;54794;48.348;7.878;2023-05-14T17:13:27;98667.00;;;21.00
68012;BMP180;54794;48.348;7.878;2023-05-14T17:16:07;98661.00;;;21.00
68012;BMP180;54794;48.348;7.878;2023-05-14T17:19:04;98671.00;;;20.90
68012;BMP180;54794;48.348;7.878;2023-05-14T17:22:13;98673.00;;;20.90
68012;BMP180;54794;48.348;7.878;2023-05-14T17:25:24;98668.00;;;20.90
68012;BMP180;54794;48.348;7.878;2023-05-14T17:28:38;98675.00;;;20.90
68012;BMP180;54794;48.348;7.878;2023-05-14T17:31:55;98676.00;;;20.90
68012;BMP180;54794;48.348;7.878;2023-05-14T17:34:58;98690.00;;;20.90
68012;BMP180;54794;48.348;7.878;2023-05-14T17:38:20;98699.00;;;20.80
68012;BMP180;54794;48.348;7.878;2023-05-14T17:41:13;98698.00;;;20.60
68012;BMP180;54794;48.348;7.878;2023-05-14T17:44:13;98705.00;;;20.50
68012;BMP180;54794;48.348;7.878;2023-05-14T17:47:00;98700.00;;;20.40
68012;BMP180;54794;48.348;7.878;2023-05-14T17:49:49;98700.00;;;20.10
68012;BMP180;54794;48.348;7.878;2023-05-14T17:52:34;98704.00;;;19.70
68012;BMP180;54794;48.348;7.878;2023-05-14T17:55:28;98699.00;;;19.80
68012;BMP180;54794;48.348;7.878;2023-05-14T17:59:08;98710.00;;;19.50
68012;BMP180;54794;48.348;7.878;2023-05-14T18:07:09;98718.00;;;19.30
68012;BMP180;54794;48.348;7.878;2023-05-14T18:10:05;98714.00;;;19.30
68012;BMP180;54794;48.348;7.878;2023-05-14T18:13:04;98724.00;;;19.50
68012;BMP180;54794;48.348;7.878;2023-05-14T18:16:36;98735.00;;;19.60
68012;BMP180;54794;48.348;7.878;2023-05-14T18:23:13;98721.00;;;19.30
68012;BMP180;54794;48.348;7.878;2023-05-14T18:30:18;98731.00;;;19.40
68012;BMP180;54794;48.348;7.878;2023-05-14T18:33:26;98740.00;;;18.90
68012;BMP180;54794;48.348;7.878;2023-05-14T18:36:27;98731.00;;;18.80
68012;BMP180;54794;48.348;7.878;2023-05-14T18:39:09;98737.00;;;18.80
68012;BMP180;54794;48.348;7.878;2023-05-14T18:42:12;98742.00;;;18.80
68012;BMP180;54794;48.348;7.878;2023-05-14T18:52:49;98741.00;;;18.80
68012;BMP180;54794;48.348;7.878;2023-05-14T18:57:17;98744.00;;;18.80
68012;BMP180;54794;48.348;7.878;2023-05-14T18:59:59;98762.00;;;18.40
68012;BMP180;54794;48.348;7.878;2023-05-14T19:03:02;98756.00;;;18.60
68012;BMP180;54794;48.348;7.878;2023-05-14T19:06:13;98761.00;;;18.60
68012;BMP180;54794;48.348;7.878;2023-05-14T19:23:02;98783.00;;;17.70
68012;BMP180;54794;48.348;7.878;2023-05-14T19:26:36;98782.00;;;17.60
68012;BMP180;54794;48.348;7.878;2023-05-14T19:33:34;98779.00;;;16.80
68012;BMP180;54794;48.348;7.878;2023-05-14T19:36:38;98776.00;;;17.10
68012;BMP180;54794;48.348;7.878;2023-05-14T19:39:36;98788.00;;;16.90
68012;BMP180;54794;48.348;7.878;2023-05-14T19:43:21;98793.00;;;17.20
68012;BMP180;54794;48.348;7.878;2023-05-14T19:46:39;98788.00;;;17.00
68012;BMP180;54794;48.348;7.878;2023-05-14T19:49:57;98800.00;;;16.70
68012;BMP180;54794;48.348;7.878;2023-05-14T20:05:21;98801.00;;;16.50
68012;BMP180;54794;48.348;7.878;2023-05-14T20:08:29;98814.00;;;16.30
68012;BMP180;54794;48.348;7.878;2023-05-14T20:11:53;98804.00;;;16.20
68012;BMP180;54794;48.348;7.878;2023-05-14T20:15:20;98803.00;;;16.10
68012;BMP180;54794;48.348;7.878;2023-05-14T20:22:46;98803.00;;;15.40
68012;BMP180;54794;48.348;7.878;2023-05-14T20:26:16;98797.00;;;15.40
68012;BMP180;54794;48.348;7.878;2023-05-14T20:29:52;98811.00;;;15.20
